sensor_id;sensor_type;location;lat;lon;timestamp;temperature;humidity
56725;DHT22;42608;52.776;6.968;2023-01-13T00:01:54;9.60;99.90
56725;DHT22;42608;52.776;6.968;2023-01-13T00:04:19;9.60;99.90
56725;DHT22;42608;52.776;6.968;2023-01-13T00:06:45;9.60;99.90
56725;DHT22;42608;52.776;6.968;2023-01-13T00:09:10;9.50;99.90
56725;DHT22;42608;52.776;6.968;2023-01-13T00:11:36;9.50;99.90
56725;DHT22;42608;52.776;6.968;2023-01-13T00:14:02;9.40;99.90
56725;DHT22;42608;52.776;6.968;2023-01-13T00:16:27;9.40;99.90
56725;DHT22;42608;52.776;6.968;2023-01-13T00:18:53;9.30;99.90
56725;DHT22;42608;52.776;6.968;2023-01-13T00:21:19;9.30;99.90
56725;DHT22;42608;52.776;6.968;2023-01-13T00:23:45;9.30;99.90
56725;DHT22;42608;52.776;6.968;2023-01-13T00:26:12;9.30;99.90
56725;DHT22;42608;52.776;6.968;2023-01-13T00:28:38;9.20;99.90
56725;DHT22;42608;52.776;6.968;2023-01-13T00:31:05;9.20;99.90
56725;DHT22;42608;52.776;6.968;2023-01-13T00:33:30;9.20;99.90
56725;DHT22;42608;52.776;6.968;2023-01-13T00:35:56;9.10;99.90
56725;DHT22;42608;52.776;6.968;2023-01-13T00:38:22;9.00;99.90
56725;DHT22;42608;52.776;6.968;2023-01-13T00:41:06;9.00;99.90
56725;DHT22;42608;52.776;6.968;2023-01-13T00:43:33;8.90;99.90
56725;DHT22;42608;52.776;6.968;2023-01-13T00:45:59;8.90;99.90
56725;DHT22;42608;52.776;6.968;2023-01-13T00:48:25;8.90;99.90
56725;DHT22;42608;52.776;6.968;2023-01-13T00:50:58;8.90;99.90
56725;DHT22;42608;52.776;6.968;2023-01-13T00:53:25;8.90;99.90
56725;DHT22;42608;52.776;6.968;2023-01-13T00:56:03;8.80;99.90
56725;DHT22;42608;52.776;6.968;2023-01-13T00:58:30;8.90;99.90
56725;DHT22;42608;52.776;6.968;2023-01-13T01:01:00;8.80;99.90
56725;DHT22;42608;52.776;6.968;2023-01-13T01:03:26;8.80;99.90
56725;DHT22;42608;52.776;6.968;2023-01-13T01:05:51;8.80;99.90
56725;DHT22;42608;52.776;6.968;2023-01-13T01:08:17;8.80;99.90
56725;DHT22;42608;52.776;6.968;2023-01-13T01:10:42;8.80;99.90
56725;DHT22;42608;52.776;6.968;2023-01-13T01:13:08;8.80;99.90
56725;DHT22;42608;52.776;6.968;2023-01-13T01:15:38;8.70;99.90
56725;DHT22;42608;52.776;6.968;2023-01-13T01:18:04;8.70;99.90
56725;DHT22;42608;52.776;6.968;2023-01-13T01:20:29;8.70;99.90
56725;DHT22;42608;52.776;6.968;2023-01-13T01:22:55;8.70;99.90
56725;DHT22;42608;52.776;6.968;2023-01-13T01:25:20;8.70;99.90
56725;DHT22;42608;52.776;6.968;2023-01-13T01:27:46;8.80;99.90
56725;DHT22;42608;52.776;6.968;2023-01-13T01:30:12;8.70;99.90
56725;DHT22;42608;52.776;6.968;2023-01-13T01:32:38;8.80;99.90
56725;DHT22;42608;52.776;6.968;2023-01-13T01:35:03;8.70;99.90
56725;DHT22;42608;52.776;6.968;2023-01-13T01:37:29;8.80;99.90
56725;DHT22;42608;52.776;6.968;2023-01-13T01:39:54;8.80;99.90
56725;DHT22;42608;52.776;6.968;2023-01-13T01:42:20;8.70;99.90
56725;DHT22;42608;52.776;6.968;2023-01-13T01:45:12;8.70;99.90
56725;DHT22;42608;52.776;6.968;2023-01-13T01:47:38;8.80;99.90
56725;DHT22;42608;52.776;6.968;2023-01-13T01:50:04;8.80;99.90
56725;DHT22;42608;52.776;6.968;2023-01-13T01:52:34;8.70;99.90
56725;DHT22;42608;52.776;6.968;2023-01-13T02:00:05;8.80;99.90
56725;DHT22;42608;52.776;6.968;2023-01-13T02:02:31;8.80;99.90
56725;DHT22;42608;52.776;6.968;2023-01-13T02:04:57;8.80;99.90
56725;DHT22;42608;52.776;6.968;2023-01-13T02:07:27;8.80;99.90
56725;DHT22;42608;52.776;6.968;2023-01-13T02:09:54;8.80;99.90
56725;DHT22;42608;52.776;6.968;2023-01-13T02:12:20;8.80;99.90
56725;DHT22;42608;52.776;6.968;2023-01-13T02:14:56;8.80;99.90
56725;DHT22;42608;52.776;6.968;2023-01-13T02:22:32;8.60;99.90
56725;DHT22;42608;52.776;6.968;2023-01-13T02:32:59;8.50;99.90
56725;DHT22;42608;52.776;6.968;2023-01-13T02:38:12;8.40;99.90
56725;DHT22;42608;52.776;6.968;2023-01-13T02:40:55;8.40;99.90
56725;DHT22;42608;52.776;6.968;2023-01-13T02:43:34;8.40;99.90
56725;DHT22;42608;52.776;6.968;2023-01-13T02:47:20;8.30;99.90
56725;DHT22;42608;52.776;6.968;2023-01-13T02:49:28;8.30;99.90
56725;DHT22;42608;52.776;6.968;2023-01-13T02:51:57;8.30;99.90
56725;DHT22;42608;52.776;6.968;2023-01-13T02:54:24;8.30;99.90
56725;DHT22;42608;52.776;6.968;2023-01-13T02:56:51;8.30;99.90
56725;DHT22;42608;52.776;6.968;2023-01-13T02:59:18;8.20;99.90
56725;DHT22;42608;52.776;6.968;2023-01-13T03:01:45;8.30;99.90
56725;DHT22;42608;52.776;6.968;2023-01-13T03:04:58;8.20;99.90
56725;DHT22;42608;52.776;6.968;2023-01-13T03:07:02;8.20;99.90
56725;DHT22;42608;52.776;6.968;2023-01-13T03:09:40;8.10;99.90
56725;DHT22;42608;52.776;6.968;2023-01-13T03:12:14;8.20;99.90
56725;DHT22;42608;52.776;6.968;2023-01-13T03:14:49;8.20;99.90
56725;DHT22;42608;52.776;6.968;2023-01-13T03:17:38;8.10;99.90
56725;DHT22;42608;52.776;6.968;2023-01-13T03:20:11;8.10;99.90
56725;DHT22;42608;52.776;6.968;2023-01-13T03:22:41;8.10;99.90
56725;DHT22;42608;52.776;6.968;2023-01-13T03:25:13;8.20;99.90
56725;DHT22;42608;52.776;6.968;2023-01-13T03:28:41;8.10;99.90
56725;DHT22;42608;52.776;6.968;2023-01-13T03:30:38;8.10;99.90
56725;DHT22;42608;52.776;6.968;2023-01-13T03:33:15;8.10;99.90
56725;DHT22;42608;52.776;6.968;2023-01-13T03:35:46;8.20;99.90
56725;DHT22;42608;52.776;6.968;2023-01-13T03:38:59;8.20;99.90
56725;DHT22;42608;52.776;6.968;2023-01-13T03:41:01;8.20;99.90
56725;DHT22;42608;52.776;6.968;2023-01-13T03:43:28;8.20;99.90
56725;DHT22;42608;52.776;6.968;2023-01-13T03:46:20;8.20;99.90
56725;DHT22;42608;52.776;6.968;2023-01-13T03:48:48;8.20;99.90
56725;DHT22;42608;52.776;6.968;2023-01-13T03:51:15;8.20;99.90
56725;DHT22;42608;52.776;6.968;2023-01-13T03:53:47;8.20;99.90
56725;DHT22;42608;52.776;6.968;2023-01-13T03:56:23;8.30;99.90
56725;DHT22;42608;52.776;6.968;2023-01-13T03:58:51;8.30;99.90
56725;DHT22;42608;52.776;6.968;2023-01-13T04:01:18;8.30;99.90
56725;DHT22;42608;52.776;6.968;2023-01-13T04:06:54;8.30;99.90
56725;DHT22;42608;52.776;6.968;2023-01-13T04:12:02;8.30;99.90
56725;DHT22;42608;52.776;6.968;2023-01-13T04:14:31;8.30;99.90
56725;DHT22;42608;52.776;6.968;2023-01-13T04:16:57;8.30;99.90
56725;DHT22;42608;52.776;6.968;2023-01-13T04:19:23;8.30;99.90
56725;DHT22;42608;52.776;6.968;2023-01-13T04:21:48;8.20;99.90
56725;DHT22;42608;52.776;6.968;2023-01-13T04:24:14;8.30;99.90
56725;DHT22;42608;52.776;6.968;2023-01-13T04:26:40;8.30;99.90
56725;DHT22;42608;52.776;6.968;2023-01-13T04:29:05;8.20;99.90
56725;DHT22;42608;52.776;6.968;2023-01-13T04:31:31;8.20;99.90
56725;DHT22;42608;52.776;6.968;2023-01-13T04:33:56;8.20;99.90
56725;DHT22;42608;52.776;6.968;2023-01-13T04:36:22;8.20;99.90
56725;DHT22;42608;52.776;6.968;2023-01-13T04:38:52;8.20;99.90
56725;DHT22;42608;52.776;6.968;2023-01-13T04:41:18;8.20;99.90
56725;DHT22;42608;52.776;6.968;2023-01-13T04:43:44;8.20;99.90
56725;DHT22;42608;52.776;6.968;2023-01-13T04:46:09;8.10;99.90
56725;DHT22;42608;52.776;6.968;2023-01-13T04:48:35;8.20;99.90
56725;DHT22;42608;52.776;6.968;2023-01-13T04:51:00;8.20;99.90
56725;DHT22;42608;52.776;6.968;2023-01-13T04:53:26;8.30;99.90
56725;DHT22;42608;52.776;6.968;2023-01-13T04:55:51;8.20;99.90
56725;DHT22;42608;52.776;6.968;2023-01-13T04:58:17;8.20;99.90
56725;DHT22;42608;52.776;6.968;2023-01-13T05:00:42;8.20;99.90
56725;DHT22;42608;52.776;6.968;2023-01-13T05:03:08;8.20;99.90
56725;DHT22;42608;52.776;6.968;2023-01-13T05:05:34;8.20;99.90
56725;DHT22;42608;52.776;6.968;2023-01-13T05:07:59;8.20;99.90
56725;DHT22;42608;52.776;6.968;2023-01-13T05:10:25;8.20;99.90
56725;DHT22;42608;52.776;6.968;2023-01-13T05:12:50;8.20;99.90
56725;DHT22;42608;52.776;6.968;2023-01-13T05:15:35;8.20;99.90
56725;DHT22;42608;52.776;6.968;2023-01-13T05:18:19;8.20;99.90
56725;DHT22;42608;52.776;6.968;2023-01-13T05:20:45;8.20;99.90
56725;DHT22;42608;52.776;6.968;2023-01-13T05:23:10;8.20;99.90
56725;DHT22;42608;52.776;6.968;2023-01-13T05:25:54;8.30;99.90
56725;DHT22;42608;52.776;6.968;2023-01-13T05:28:20;8.20;99.90
56725;DHT22;42608;52.776;6.968;2023-01-13T05:30:46;8.20;99.90
56725;DHT22;42608;52.776;6.968;2023-01-13T05:33:14;8.30;99.90
56725;DHT22;42608;52.776;6.968;2023-01-13T05:35:41;8.20;99.90
56725;DHT22;42608;52.776;6.968;2023-01-13T05:38:08;8.20;99.90
56725;DHT22;42608;52.776;6.968;2023-01-13T05:40:33;8.20;99.90
56725;DHT22;42608;52.776;6.968;2023-01-13T05:43:19;8.10;99.90
56725;DHT22;42608;52.776;6.968;2023-01-13T05:45:54;8.10;99.90
56725;DHT22;42608;52.776;6.968;2023-01-13T05:48:21;8.10;99.90
56725;DHT22;42608;52.776;6.968;2023-01-13T05:50:47;8.10;99.90
56725;DHT22;42608;52.776;6.968;2023-01-13T05:53:17;8.10;99.90
56725;DHT22;42608;52.776;6.968;2023-01-13T05:55:43;8.20;99.90
56725;DHT22;42608;52.776;6.968;2023-01-13T05:58:09;8.20;99.90
56725;DHT22;42608;52.776;6.968;2023-01-13T06:00:35;8.20;99.90
56725;DHT22;42608;52.776;6.968;2023-01-13T06:03:01;8.10;99.90
56725;DHT22;42608;52.776;6.968;2023-01-13T06:05:27;8.10;99.90
56725;DHT22;42608;52.776;6.968;2023-01-13T06:07:56;8.10;99.90
56725;DHT22;42608;52.776;6.968;2023-01-13T06:10:22;8.10;99.90
56725;DHT22;42608;52.776;6.968;2023-01-13T06:12:48;8.10;99.90
56725;DHT22;42608;52.776;6.968;2023-01-13T06:15:13;8.10;99.90
56725;DHT22;42608;52.776;6.968;2023-01-13T06:17:39;8.10;99.90
56725;DHT22;42608;52.776;6.968;2023-01-13T06:20:04;8.10;99.90
56725;DHT22;42608;52.776;6.968;2023-01-13T06:22:32;8.10;99.90
56725;DHT22;42608;52.776;6.968;2023-01-13T06:25:00;8.10;99.90
56725;DHT22;42608;52.776;6.968;2023-01-13T06:27:26;8.10;99.90
56725;DHT22;42608;52.776;6.968;2023-01-13T06:29:53;8.10;99.90
56725;DHT22;42608;52.776;6.968;2023-01-13T06:32:22;8.10;99.90
56725;DHT22;42608;52.776;6.968;2023-01-13T06:34:50;8.10;99.90
56725;DHT22;42608;52.776;6.968;2023-01-13T06:37:16;8.10;99.90
56725;DHT22;42608;52.776;6.968;2023-01-13T06:39:46;8.10;99.90
56725;DHT22;42608;52.776;6.968;2023-01-13T06:42:12;8.10;99.90
56725;DHT22;42608;52.776;6.968;2023-01-13T06:44:55;8.10;99.90
56725;DHT22;42608;52.776;6.968;2023-01-13T06:47:21;8.10;99.90
56725;DHT22;42608;52.776;6.968;2023-01-13T06:49:47;8.10;99.90
56725;DHT22;42608;52.776;6.968;2023-01-13T06:52:13;8.10;99.90
56725;DHT22;42608;52.776;6.968;2023-01-13T06:54:39;8.10;99.90
56725;DHT22;42608;52.776;6.968;2023-01-13T06:57:04;8.10;99.90
56725;DHT22;42608;52.776;6.968;2023-01-13T06:59:30;8.10;99.90
56725;DHT22;42608;52.776;6.968;2023-01-13T07:01:58;8.10;99.90
56725;DHT22;42608;52.776;6.968;2023-01-13T07:04:24;8.10;99.90
56725;DHT22;42608;52.776;6.968;2023-01-13T07:06:49;8.20;99.90
56725;DHT22;42608;52.776;6.968;2023-01-13T07:09:15;8.10;99.90
56725;DHT22;42608;52.776;6.968;2023-01-13T07:11:41;8.10;99.90
56725;DHT22;42608;52.776;6.968;2023-01-13T07:14:06;8.10;99.90
56725;DHT22;42608;52.776;6.968;2023-01-13T07:16:51;8.20;99.90
56725;DHT22;42608;52.776;6.968;2023-01-13T07:19:16;8.10;99.90
56725;DHT22;42608;52.776;6.968;2023-01-13T07:21:47;8.10;99.90
56725;DHT22;42608;52.776;6.968;2023-01-13T07:24:13;8.10;99.90
56725;DHT22;42608;52.776;6.968;2023-01-13T07:26:38;8.20;99.90
56725;DHT22;42608;52.776;6.968;2023-01-13T07:29:04;8.20;99.90
56725;DHT22;42608;52.776;6.968;2023-01-13T07:31:29;8.20;99.90
56725;DHT22;42608;52.776;6.968;2023-01-13T07:33:55;8.20;99.90
56725;DHT22;42608;52.776;6.968;2023-01-13T07:36:20;8.20;99.90
56725;DHT22;42608;52.776;6.968;2023-01-13T07:38:46;8.10;99.90
56725;DHT22;42608;52.776;6.968;2023-01-13T07:41:12;8.10;99.90
56725;DHT22;42608;52.776;6.968;2023-01-13T07:43:57;8.00;99.90
56725;DHT22;42608;52.776;6.968;2023-01-13T07:46:22;8.10;99.90
56725;DHT22;42608;52.776;6.968;2023-01-13T07:48:48;8.10;99.90
56725;DHT22;42608;52.776;6.968;2023-01-13T07:51:13;8.10;99.90
56725;DHT22;42608;52.776;6.968;2023-01-13T07:53:39;8.10;99.90
56725;DHT22;42608;52.776;6.968;2023-01-13T07:56:05;8.10;99.90
56725;DHT22;42608;52.776;6.968;2023-01-13T07:58:31;8.10;99.90
56725;DHT22;42608;52.776;6.968;2023-01-13T08:00:57;8.10;99.90
56725;DHT22;42608;52.776;6.968;2023-01-13T08:03:23;8.20;99.90
56725;DHT22;42608;52.776;6.968;2023-01-13T08:05:48;8.10;99.90
56725;DHT22;42608;52.776;6.968;2023-01-13T08:08:14;8.10;99.90
56725;DHT22;42608;52.776;6.968;2023-01-13T08:10:40;8.20;99.90
56725;DHT22;42608;52.776;6.968;2023-01-13T08:13:09;8.10;99.90
56725;DHT22;42608;52.776;6.968;2023-01-13T08:15:47;8.10;99.90
56725;DHT22;42608;52.776;6.968;2023-01-13T08:18:13;8.10;99.90
56725;DHT22;42608;52.776;6.968;2023-01-13T08:20:39;8.10;99.90
56725;DHT22;42608;52.776;6.968;2023-01-13T08:23:04;8.10;99.90
56725;DHT22;42608;52.776;6.968;2023-01-13T08:25:30;8.10;99.90
56725;DHT22;42608;52.776;6.968;2023-01-13T08:27:56;8.00;99.90
56725;DHT22;42608;52.776;6.968;2023-01-13T08:30:24;8.10;99.90
56725;DHT22;42608;52.776;6.968;2023-01-13T08:32:50;8.10;99.90
56725;DHT22;42608;52.776;6.968;2023-01-13T08:35:16;8.00;99.90
56725;DHT22;42608;52.776;6.968;2023-01-13T08:37:42;8.00;99.90
56725;DHT22;42608;52.776;6.968;2023-01-13T08:40:08;8.00;99.90
56725;DHT22;42608;52.776;6.968;2023-01-13T08:42:34;8.00;99.90
56725;DHT22;42608;52.776;6.968;2023-01-13T08:44:59;7.90;99.90
56725;DHT22;42608;52.776;6.968;2023-01-13T08:47:25;7.90;99.90
56725;DHT22;42608;52.776;6.968;2023-01-13T08:49:51;7.80;99.90
56725;DHT22;42608;52.776;6.968;2023-01-13T08:52:16;7.80;99.90
56725;DHT22;42608;52.776;6.968;2023-01-13T08:54:42;7.70;99.90
56725;DHT22;42608;52.776;6.968;2023-01-13T08:57:08;7.70;99.90
56725;DHT22;42608;52.776;6.968;2023-01-13T08:59:33;7.70;99.90
56725;DHT22;42608;52.776;6.968;2023-01-13T09:01:59;7.70;99.90
56725;DHT22;42608;52.776;6.968;2023-01-13T09:04:25;7.60;99.90
56725;DHT22;42608;52.776;6.968;2023-01-13T09:06:52;7.60;99.90
56725;DHT22;42608;52.776;6.968;2023-01-13T09:09:18;7.60;99.90
56725;DHT22;42608;52.776;6.968;2023-01-13T09:11:44;7.60;99.90
56725;DHT22;42608;52.776;6.968;2023-01-13T09:14:33;7.60;99.90
56725;DHT22;42608;52.776;6.968;2023-01-13T09:16:59;7.60;99.90
56725;DHT22;42608;52.776;6.968;2023-01-13T09:19:26;7.60;99.90
56725;DHT22;42608;52.776;6.968;2023-01-13T09:21:53;7.70;99.90
56725;DHT22;42608;52.776;6.968;2023-01-13T09:24:18;7.70;99.90
56725;DHT22;42608;52.776;6.968;2023-01-13T09:26:44;7.70;99.90
56725;DHT22;42608;52.776;6.968;2023-01-13T09:29:10;7.80;99.90
56725;DHT22;42608;52.776;6.968;2023-01-13T09:31:35;7.70;99.90
56725;DHT22;42608;52.776;6.968;2023-01-13T09:34:04;7.80;99.90
56725;DHT22;42608;52.776;6.968;2023-01-13T09:36:49;7.80;99.90
56725;DHT22;42608;52.776;6.968;2023-01-13T09:39:15;7.70;99.90
56725;DHT22;42608;52.776;6.968;2023-01-13T09:41:44;7.80;99.90
56725;DHT22;42608;52.776;6.968;2023-01-13T09:46:59;7.80;99.90
56725;DHT22;42608;52.776;6.968;2023-01-13T09:49:39;7.90;99.90
56725;DHT22;42608;52.776;6.968;2023-01-13T09:52:07;7.90;99.90
56725;DHT22;42608;52.776;6.968;2023-01-13T09:54:38;7.90;99.90
56725;DHT22;42608;52.776;6.968;2023-01-13T09:57:12;7.90;99.90
56725;DHT22;42608;52.776;6.968;2023-01-13T09:59:38;7.90;99.90
56725;DHT22;42608;52.776;6.968;2023-01-13T10:04:42;8.00;99.90
56725;DHT22;42608;52.776;6.968;2023-01-13T10:07:10;8.10;99.90
56725;DHT22;42608;52.776;6.968;2023-01-13T10:12:04;8.10;99.90
56725;DHT22;42608;52.776;6.968;2023-01-13T10:14:53;8.20;99.90
56725;DHT22;42608;52.776;6.968;2023-01-13T10:27:33;8.20;99.90
56725;DHT22;42608;52.776;6.968;2023-01-13T10:32:49;8.10;99.90
56725;DHT22;42608;52.776;6.968;2023-01-13T10:35:15;8.10;99.90
56725;DHT22;42608;52.776;6.968;2023-01-13T10:37:41;8.10;99.90
56725;DHT22;42608;52.776;6.968;2023-01-13T10:40:19;8.00;99.90
56725;DHT22;42608;52.776;6.968;2023-01-13T10:42:45;8.00;99.90
56725;DHT22;42608;52.776;6.968;2023-01-13T10:45:16;8.00;99.90
56725;DHT22;42608;52.776;6.968;2023-01-13T10:47:47;8.00;99.90
56725;DHT22;42608;52.776;6.968;2023-01-13T10:50:27;7.90;99.90
56725;DHT22;42608;52.776;6.968;2023-01-13T10:52:57;8.00;99.90
56725;DHT22;42608;52.776;6.968;2023-01-13T10:55:30;8.00;99.90
56725;DHT22;42608;52.776;6.968;2023-01-13T11:00:59;8.00;99.90
56725;DHT22;42608;52.776;6.968;2023-01-13T11:03:27;7.90;99.90
56725;DHT22;42608;52.776;6.968;2023-01-13T11:05:58;7.90;99.90
56725;DHT22;42608;52.776;6.968;2023-01-13T11:08:25;8.00;99.90
56725;DHT22;42608;52.776;6.968;2023-01-13T11:10:52;8.00;99.90
56725;DHT22;42608;52.776;6.968;2023-01-13T11:13:38;8.00;99.90
56725;DHT22;42608;52.776;6.968;2023-01-13T11:16:24;8.00;99.90
56725;DHT22;42608;52.776;6.968;2023-01-13T11:18:52;8.00;99.90
56725;DHT22;42608;52.776;6.968;2023-01-13T11:26:46;8.00;99.90
56725;DHT22;42608;52.776;6.968;2023-01-13T11:31:51;8.00;99.90
56725;DHT22;42608;52.776;6.968;2023-01-13T11:36:47;8.00;99.90
56725;DHT22;42608;52.776;6.968;2023-01-13T11:42:02;8.00;99.90
56725;DHT22;42608;52.776;6.968;2023-01-13T11:44:48;8.00;99.90
56725;DHT22;42608;52.776;6.968;2023-01-13T11:47:15;8.00;99.90
56725;DHT22;42608;52.776;6.968;2023-01-13T11:49:41;8.00;99.90
56725;DHT22;42608;52.776;6.968;2023-01-13T11:52:15;8.00;99.90
56725;DHT22;42608;52.776;6.968;2023-01-13T11:54:51;8.00;99.90
56725;DHT22;42608;52.776;6.968;2023-01-13T11:57:26;8.00;99.90
56725;DHT22;42608;52.776;6.968;2023-01-13T12:08:02;8.00;99.90
56725;DHT22;42608;52.776;6.968;2023-01-13T12:10:43;8.00;99.90
56725;DHT22;42608;52.776;6.968;2023-01-13T12:13:15;8.00;99.90
56725;DHT22;42608;52.776;6.968;2023-01-13T12:23:23;7.90;99.90
56725;DHT22;42608;52.776;6.968;2023-01-13T12:25:51;8.00;99.90
56725;DHT22;42608;52.776;6.968;2023-01-13T12:28:20;8.00;99.90
56725;DHT22;42608;52.776;6.968;2023-01-13T12:30:49;8.10;99.90
56725;DHT22;42608;52.776;6.968;2023-01-13T12:36:04;8.10;99.90
56725;DHT22;42608;52.776;6.968;2023-01-13T12:38:36;8.10;99.90
56725;DHT22;42608;52.776;6.968;2023-01-13T12:43:33;8.20;99.90
56725;DHT22;42608;52.776;6.968;2023-01-13T12:53:52;8.20;99.90
56725;DHT22;42608;52.776;6.968;2023-01-13T12:58:44;8.20;99.90
56725;DHT22;42608;52.776;6.968;2023-01-13T13:01:10;8.20;99.90
56725;DHT22;42608;52.776;6.968;2023-01-13T13:03:37;8.20;99.90
56725;DHT22;42608;52.776;6.968;2023-01-13T13:06:12;8.20;99.90
56725;DHT22;42608;52.776;6.968;2023-01-13T13:13:58;8.10;99.90
56725;DHT22;42608;52.776;6.968;2023-01-13T13:18:50;8.10;99.90
56725;DHT22;42608;52.776;6.968;2023-01-13T13:21:16;8.10;99.90
56725;DHT22;42608;52.776;6.968;2023-01-13T13:23:56;8.10;99.90
56725;DHT22;42608;52.776;6.968;2023-01-13T13:42:00;8.00;99.90
56725;DHT22;42608;52.776;6.968;2023-01-13T13:44:47;8.00;99.90
56725;DHT22;42608;52.776;6.968;2023-01-13T13:47:36;8.00;99.90
56725;DHT22;42608;52.776;6.968;2023-01-13T13:50:20;8.10;99.90
56725;DHT22;42608;52.776;6.968;2023-01-13T13:52:49;8.10;99.90
56725;DHT22;42608;52.776;6.968;2023-01-13T13:55:20;8.10;99.90
56725;DHT22;42608;52.776;6.968;2023-01-13T13:57:47;8.20;99.90
56725;DHT22;42608;52.776;6.968;2023-01-13T14:02:39;8.20;99.90
56725;DHT22;42608;52.776;6.968;2023-01-13T14:07:42;8.20;99.90
56725;DHT22;42608;52.776;6.968;2023-01-13T14:10:19;8.20;99.90
56725;DHT22;42608;52.776;6.968;2023-01-13T14:12:45;8.10;99.90
56725;DHT22;42608;52.776;6.968;2023-01-13T14:15:28;8.10;99.90
56725;DHT22;42608;52.776;6.968;2023-01-13T14:17:55;8.10;99.90
56725;DHT22;42608;52.776;6.968;2023-01-13T14:20:21;8.20;99.90
56725;DHT22;42608;52.776;6.968;2023-01-13T14:22:47;8.20;99.90
56725;DHT22;42608;52.776;6.968;2023-01-13T14:25:34;8.20;99.90
56725;DHT22;42608;52.776;6.968;2023-01-13T14:30:45;8.20;99.90
56725;DHT22;42608;52.776;6.968;2023-01-13T14:33:13;8.30;99.90
56725;DHT22;42608;52.776;6.968;2023-01-13T14:36:02;8.30;99.90
56725;DHT22;42608;52.776;6.968;2023-01-13T14:38:25;8.20;99.90
56725;DHT22;42608;52.776;6.968;2023-01-13T14:40:50;8.20;99.90
56725;DHT22;42608;52.776;6.968;2023-01-13T14:43:17;8.20;99.90
56725;DHT22;42608;52.776;6.968;2023-01-13T14:45:56;8.20;99.90
56725;DHT22;42608;52.776;6.968;2023-01-13T14:48:24;8.20;99.90
56725;DHT22;42608;52.776;6.968;2023-01-13T14:50:51;8.30;99.90
56725;DHT22;42608;52.776;6.968;2023-01-13T14:59:29;8.30;99.90
56725;DHT22;42608;52.776;6.968;2023-01-13T15:01:44;8.30;99.90
56725;DHT22;42608;52.776;6.968;2023-01-13T15:04:21;8.30;99.90
56725;DHT22;42608;52.776;6.968;2023-01-13T15:06:48;8.30;99.90
56725;DHT22;42608;52.776;6.968;2023-01-13T15:09:19;8.40;99.90
56725;DHT22;42608;52.776;6.968;2023-01-13T15:11:47;8.40;99.90
56725;DHT22;42608;52.776;6.968;2023-01-13T15:14:14;8.40;99.90
56725;DHT22;42608;52.776;6.968;2023-01-13T15:16:41;8.40;99.90
56725;DHT22;42608;52.776;6.968;2023-01-13T15:19:07;8.50;99.90
56725;DHT22;42608;52.776;6.968;2023-01-13T15:21:33;8.40;99.90
56725;DHT22;42608;52.776;6.968;2023-01-13T15:23:59;8.50;99.90
56725;DHT22;42608;52.776;6.968;2023-01-13T15:26:26;8.50;99.90
56725;DHT22;42608;52.776;6.968;2023-01-13T15:28:52;8.50;99.90
56725;DHT22;42608;52.776;6.968;2023-01-13T15:31:19;8.60;99.90
56725;DHT22;42608;52.776;6.968;2023-01-13T15:33:44;8.60;99.90
56725;DHT22;42608;52.776;6.968;2023-01-13T15:36:26;8.60;99.90
56725;DHT22;42608;52.776;6.968;2023-01-13T15:38:53;8.60;99.90
56725;DHT22;42608;52.776;6.968;2023-01-13T15:41:19;8.60;99.90
56725;DHT22;42608;52.776;6.968;2023-01-13T15:44:04;8.60;99.90
56725;DHT22;42608;52.776;6.968;2023-01-13T15:46:49;8.60;99.90
56725;DHT22;42608;52.776;6.968;2023-01-13T15:51:49;8.60;99.90
56725;DHT22;42608;52.776;6.968;2023-01-13T15:54:15;8.60;99.90
56725;DHT22;42608;52.776;6.968;2023-01-13T15:56:40;8.60;99.90
56725;DHT22;42608;52.776;6.968;2023-01-13T15:59:14;8.70;99.90
56725;DHT22;42608;52.776;6.968;2023-01-13T16:01:40;8.60;99.90
56725;DHT22;42608;52.776;6.968;2023-01-13T16:04:07;8.60;99.90
56725;DHT22;42608;52.776;6.968;2023-01-13T16:06:32;8.60;99.90
56725;DHT22;42608;52.776;6.968;2023-01-13T16:09:00;8.60;99.90
56725;DHT22;42608;52.776;6.968;2023-01-13T16:11:26;8.60;99.90
56725;DHT22;42608;52.776;6.968;2023-01-13T16:13:51;8.60;99.90
56725;DHT22;42608;52.776;6.968;2023-01-13T16:16:21;8.60;99.90
56725;DHT22;42608;52.776;6.968;2023-01-13T16:18:48;8.60;99.90
56725;DHT22;42608;52.776;6.968;2023-01-13T16:21:13;8.50;99.90
56725;DHT22;42608;52.776;6.968;2023-01-13T16:23:39;8.60;99.90
56725;DHT22;42608;52.776;6.968;2023-01-13T16:26:13;8.50;99.90
56725;DHT22;42608;52.776;6.968;2023-01-13T16:28:40;8.40;99.90
56725;DHT22;42608;52.776;6.968;2023-01-13T16:33:51;8.30;99.90
56725;DHT22;42608;52.776;6.968;2023-01-13T16:36:17;8.30;99.90
56725;DHT22;42608;52.776;6.968;2023-01-13T16:38:43;8.30;99.90
56725;DHT22;42608;52.776;6.968;2023-01-13T16:41:09;8.20;99.90
56725;DHT22;42608;52.776;6.968;2023-01-13T16:43:35;8.20;99.90
56725;DHT22;42608;52.776;6.968;2023-01-13T16:46:00;8.20;99.90
56725;DHT22;42608;52.776;6.968;2023-01-13T16:48:26;8.20;99.90
56725;DHT22;42608;52.776;6.968;2023-01-13T16:50:51;8.30;99.90
56725;DHT22;42608;52.776;6.968;2023-01-13T16:53:17;8.20;99.90
56725;DHT22;42608;52.776;6.968;2023-01-13T16:55:42;8.10;99.90
56725;DHT22;42608;52.776;6.968;2023-01-13T16:58:14;8.00;99.90
56725;DHT22;42608;52.776;6.968;2023-01-13T17:00:41;8.00;99.90
56725;DHT22;42608;52.776;6.968;2023-01-13T17:03:06;8.00;99.90
56725;DHT22;42608;52.776;6.968;2023-01-13T17:05:32;8.00;99.90
56725;DHT22;42608;52.776;6.968;2023-01-13T17:07:57;8.00;99.90
56725;DHT22;42608;52.776;6.968;2023-01-13T17:10:23;8.00;99.90
56725;DHT22;42608;52.776;6.968;2023-01-13T17:12:49;8.00;99.90
56725;DHT22;42608;52.776;6.968;2023-01-13T17:15:15;8.00;99.90
56725;DHT22;42608;52.776;6.968;2023-01-13T17:17:41;8.00;99.90
56725;DHT22;42608;52.776;6.968;2023-01-13T17:20:11;8.10;99.90
56725;DHT22;42608;52.776;6.968;2023-01-13T17:22:37;8.10;99.90
56725;DHT22;42608;52.776;6.968;2023-01-13T17:25:03;8.10;99.90
56725;DHT22;42608;52.776;6.968;2023-01-13T17:27:29;8.20;99.90
56725;DHT22;42608;52.776;6.968;2023-01-13T17:29:55;8.20;99.90
56725;DHT22;42608;52.776;6.968;2023-01-13T17:32:20;8.20;99.90
56725;DHT22;42608;52.776;6.968;2023-01-13T17:34:47;8.20;99.90
56725;DHT22;42608;52.776;6.968;2023-01-13T17:37:13;8.20;99.90
56725;DHT22;42608;52.776;6.968;2023-01-13T17:39:43;8.20;99.90
56725;DHT22;42608;52.776;6.968;2023-01-13T17:42:09;8.20;99.90
56725;DHT22;42608;52.776;6.968;2023-01-13T17:44:35;8.20;99.90
56725;DHT22;42608;52.776;6.968;2023-01-13T17:47:04;8.30;99.90
56725;DHT22;42608;52.776;6.968;2023-01-13T17:49:30;8.20;99.90
56725;DHT22;42608;52.776;6.968;2023-01-13T17:51:55;8.10;99.90
56725;DHT22;42608;52.776;6.968;2023-01-13T17:54:21;8.20;99.90
56725;DHT22;42608;52.776;6.968;2023-01-13T17:56:47;8.10;99.90
56725;DHT22;42608;52.776;6.968;2023-01-13T17:59:13;8.10;99.90
56725;DHT22;42608;52.776;6.968;2023-01-13T18:01:39;8.10;99.90
56725;DHT22;42608;52.776;6.968;2023-01-13T18:04:05;8.10;99.90
56725;DHT22;42608;52.776;6.968;2023-01-13T18:06:31;8.00;99.90
56725;DHT22;42608;52.776;6.968;2023-01-13T18:08:57;8.00;99.90
56725;DHT22;42608;52.776;6.968;2023-01-13T18:11:23;8.10;99.90
56725;DHT22;42608;52.776;6.968;2023-01-13T18:13:50;8.00;99.90